Time;durP1;ratioP1;P1;durP2;ratioP2;P2;SDS_P1;SDS_P2;PMS_P1;PMS_P2;Temp;Humidity;BMP_temperature;BMP_pressure;BME280_temperature;BME280_humidity;BME280_pressure;Samples;Min_cycle;Max_cycle;Signal;HPM_P1;HPM_P2
2022/11/01 00:00:22;;;;;;;26.33;11.57;;;;;;;9.88;100.00;98469.03;2631306;28;20398;-89
2022/11/01 00:01:59;;;;;;;22.35;11.07;;;;;;;9.95;100.00;98469.72;2630550;28;20143;-91
2022/11/01 00:03:14;;;;;;;26.15;11.73;;;;;;;9.89;100.00;98477.72;2630540;28;20383;-90
2022/11/01 00:04:30;;;;;;;23.85;11.48;;;;;;;10.10;100.00;98476.31;2630864;28;20055;-89
2022/11/01 00:05:45;;;;;;;26.52;12.50;;;;;;;10.15;100.00;98474.44;2630663;28;20490;-87
2022/11/01 00:07:01;;;;;;;23.08;11.15;;;;;;;10.26;100.00;98466.31;2629255;28;20520;-90
2022/11/01 00:08:16;;;;;;;19.77;11.13;;;;;;;10.27;100.00;98469.81;2623845;28;20393;-87
2022/11/01 00:09:32;;;;;;;20.55;10.15;;;;;;;9.99;100.00;98466.13;2631259;28;20444;-89
2022/11/01 00:10:48;;;;;;;20.10;11.65;;;;;;;9.88;100.00;98469.03;2630675;28;20089;-89
2022/11/01 00:12:04;;;;;;;23.02;12.02;;;;;;;10.03;100.00;98472.16;2636906;28;20493;-89
2022/11/01 00:13:19;;;;;;;37.17;12.02;;;;;;;10.09;100.00;98473.75;2641473;28;20052;-90
2022/11/01 00:14:35;;;;;;;20.48;11.65;;;;;;;9.81;100.00;98471.81;2636321;28;20047;-90
2022/11/01 00:15:51;;;;;;;29.63;12.32;;;;;;;9.88;100.00;98468.16;2630719;28;20048;-90
2022/11/01 00:17:07;;;;;;;25.48;12.80;;;;;;;10.11;100.00;98475.41;2630600;28;20052;-90
2022/11/01 00:18:22;;;;;;;27.42;13.30;;;;;;;10.24;100.00;98473.34;2630269;28;20051;-90
2022/11/01 00:19:38;;;;;;;22.92;12.43;;;;;;;10.16;100.00;98468.31;2630210;28;20093;-89
2022/11/01 00:20:53;;;;;;;22.75;12.35;;;;;;;10.18;100.00;98473.50;2630897;28;20048;-89
2022/11/01 00:22:09;;;;;;;23.83;12.02;;;;;;;10.28;100.00;98468.91;2630516;28;20048;-89
2022/11/01 00:23:25;;;;;;;32.13;12.13;;;;;;;10.38;100.00;98467.75;2630569;28;20048;-89
2022/11/01 00:24:40;;;;;;;23.75;11.57;;;;;;;10.35;100.00;98472.22;2630789;28;20052;-89
2022/11/01 00:25:59;;;;;;;23.52;12.45;;;;;;;10.37;100.00;98475.66;2630514;28;20590;-90
2022/11/01 00:27:15;;;;;;;24.38;11.25;;;;;;;10.20;100.00;98484.81;2630471;28;20085;-89
2022/11/01 00:28:32;;;;;;;20.98;11.45;;;;;;;10.31;100.00;98477.50;2630551;28;20826;-90
2022/11/01 00:29:47;;;;;;;19.83;11.13;;;;;;;10.27;100.00;98481.13;2638056;28;20171;-90
2022/11/01 00:31:03;;;;;;;25.23;11.85;;;;;;;10.28;100.00;98472.38;2640614;28;20063;-90
2022/11/01 00:32:19;;;;;;;18.60;10.75;;;;;;;10.46;100.00;98478.03;2641098;28;20104;-90
2022/11/01 00:33:35;;;;;;;19.70;11.13;;;;;;;10.47;100.00;98473.66;2640510;28;20044;-89
2022/11/01 00:34:51;;;;;;;20.40;11.02;;;;;;;10.45;100.00;98473.69;2640341;28;20508;-90
2022/11/01 00:36:07;;;;;;;25.40;11.48;;;;;;;10.22;100.00;98480.38;2639388;28;20055;-89
2022/11/01 00:37:23;;;;;;;22.63;12.02;;;;;;;10.47;100.00;98471.06;2641152;28;20108;-89
2022/11/01 00:38:39;;;;;;;23.63;11.80;;;;;;;10.54;100.00;98480.44;2641095;28;20116;-89
2022/11/01 00:39:54;;;;;;;22.25;11.32;;;;;;;10.63;100.00;98474.97;2641262;28;20039;-90
2022/11/01 00:41:10;;;;;;;20.25;11.70;;;;;;;10.54;100.00;98475.19;2641206;28;20052;-90
2022/11/01 00:42:25;;;;;;;21.83;11.13;;;;;;;10.45;100.00;98465.84;2641276;28;20108;-89
2022/11/01 00:43:41;;;;;;;21.02;11.60;;;;;;;10.62;100.00;98468.00;2641043;28;20104;-89
2022/11/01 00:44:57;;;;;;;20.90;11.50;;;;;;;10.62;100.00;98469.78;2641164;28;20059;-90
2022/11/01 00:46:12;;;;;;;24.75;11.15;;;;;;;10.57;100.00;98462.91;2642552;28;20051;-89
2022/11/01 00:47:28;;;;;;;23.30;10.85;;;;;;;10.48;100.00;98462.28;2643032;28;20177;-90
2022/11/01 00:48:44;;;;;;;37.67;11.77;;;;;;;10.52;100.00;98463.91;2643550;28;20047;-89
2022/11/01 00:49:59;;;;;;;26.95;11.82;;;;;;;10.49;100.00;98461.41;2643764;28;20048;-89
2022/11/01 00:51:15;;;;;;;19.50;11.55;;;;;;;10.48;100.00;98465.78;2643517;28;20101;-90
2022/11/01 00:52:30;;;;;;;25.98;12.25;;;;;;;10.59;100.00;98458.47;2643371;28;20044;-89
2022/11/01 00:53:46;;;;;;;25.23;11.50;;;;;;;10.67;100.00;98455.63;2637463;28;20039;-89
2022/11/01 00:55:01;;;;;;;27.23;12.38;;;;;;;10.67;100.00;98457.41;2632916;28;20044;-89
2022/11/01 00:56:17;;;;;;;33.38;11.73;;;;;;;10.62;100.00;98459.31;2633159;28;20085;-89
2022/11/01 00:57:33;;;;;;;39.45;12.25;;;;;;;10.63;100.00;98461.03;2632729;28;20545;-89
2022/11/01 00:58:49;;;;;;;32.60;12.07;;;;;;;10.54;100.00;98463.00;2632389;28;20052;-88
2022/11/01 01:00:05;;;;;;;45.58;12.73;;;;;;;10.45;100.00;98466.72;2632946;28;20471;-89
2022/11/01 01:01:21;;;;;;;19.92;10.75;;;;;;;10.38;100.00;98464.28;2632815;28;20186;-89
2022/11/01 01:02:37;;;;;;;23.40;11.85;;;;;;;10.34;100.00;98462.63;2633009;28;20056;-89
2022/11/01 01:03:52;;;;;;;23.00;12.00;;;;;;;10.16;100.00;98463.09;2632405;28;20051;-90
2022/11/01 01:05:09;;;;;;;25.02;13.52;;;;;;;10.09;100.00;98455.44;2632644;28;20059;-90
2022/11/01 01:06:24;;;;;;;25.27;13.20;;;;;;;10.20;100.00;98453.41;2632939;28;20048;-89
2022/11/01 01:07:40;;;;;;;26.25;12.95;;;;;;;10.22;100.00;98451.59;2632905;28;20098;-90
2022/11/01 01:08:59;;;;;;;28.77;12.73;;;;;;;10.31;100.00;98446.09;2632815;28;20632;-89
2022/11/01 01:10:14;;;;;;;29.52;14.48;;;;;;;10.26;100.00;98441.88;2632794;28;20407;-90
2022/11/01 01:11:30;;;;;;;36.80;13.57;;;;;;;10.47;100.00;98448.34;2632501;28;20040;-89
2022/11/01 01:12:46;;;;;;;30.52;14.38;;;;;;;10.43;100.00;98447.59;2632801;28;20091;-89
2022/11/01 01:14:01;;;;;;;22.15;12.77;;;;;;;10.52;100.00;98445.59;2631536;28;20046;-89
2022/11/01 01:15:17;;;;;;;26.88;13.68;;;;;;;10.50;100.00;98445.66;2632046;28;20108;-89
2022/11/01 01:16:33;;;;;;;37.03;14.85;;;;;;;10.58;100.00;98437.59;2632781;28;20044;-89
2022/11/01 01:17:49;;;;;;;28.15;13.40;;;;;;;10.43;100.00;98444.09;2632904;28;20062;-90
2022/11/01 01:19:04;;;;;;;29.33;13.45;;;;;;;10.26;100.00;98444.50;2632729;28;20040;-89
2022/11/01 01:20:20;;;;;;;29.50;14.05;;;;;;;10.31;100.00;98446.09;2632752;28;20164;-89
2022/11/01 01:21:35;;;;;;;27.48;14.55;;;;;;;10.17;100.00;98443.88;2632755;28;20050;-90
2022/11/01 01:22:51;;;;;;;29.45;14.23;;;;;;;10.26;100.00;98434.91;2632746;28;20379;-89
2022/11/01 01:24:06;;;;;;;26.77;13.43;;;;;;;10.17;100.00;98435.16;2632572;28;20105;-89
2022/11/01 01:25:22;;;;;;;28.25;13.90;;;;;;;10.35;100.00;98431.19;2632762;28;20048;-89
2022/11/01 01:26:38;;;;;;;24.40;14.40;;;;;;;10.49;100.00;98430.84;2632679;28;20078;-89
2022/11/01 01:27:54;;;;;;;31.13;14.73;;;;;;;10.47;100.00;98430.00;2631836;28;20106;-89
2022/11/01 01:29:10;;;;;;;27.95;13.52;;;;;;;10.41;100.00;98427.56;2631368;28;20048;-89
2022/11/01 01:30:26;;;;;;;28.20;14.23;;;;;;;10.41;100.00;98433.69;2631791;28;20091;-89
2022/11/01 01:31:41;;;;;;;28.15;13.13;;;;;;;10.32;100.00;98429.50;2631139;28;20490;-90
2022/11/01 01:32:58;;;;;;;37.28;14.20;;;;;;;10.58;100.00;98433.19;2631611;28;20051;-89
2022/11/01 01:34:13;;;;;;;26.80;13.80;;;;;;;10.69;100.00;98434.66;2630687;28;20125;-89
2022/11/01 01:35:29;;;;;;;26.67;13.73;;;;;;;10.71;100.00;98428.47;2631535;28;20071;-90
2022/11/01 01:36:45;;;;;;;27.30;13.00;;;;;;;10.80;100.00;98429.09;2631923;28;20075;-89
2022/11/01 01:38:01;;;;;;;26.75;13.45;;;;;;;10.65;100.00;98433.03;2632023;28;20052;-89
2022/11/01 01:39:16;;;;;;;23.67;12.77;;;;;;;10.77;100.00;98424.84;2632123;28;20054;-89
2022/11/01 01:40:33;;;;;;;24.92;13.13;;;;;;;10.70;100.00;98425.91;2632593;28;20051;-89
2022/11/01 01:41:55;;;;;;;25.75;12.38;;;;;;;10.72;100.00;98418.84;2632173;28;20055;-90
2022/11/01 01:43:11;;;;;;;28.45;13.82;;;;;;;10.58;100.00;98422.72;2630420;28;20044;-89
2022/11/01 01:44:50;;;;;;;23.40;12.75;;;;;;;10.75;100.00;98418.75;2631423;28;20040;-89
2022/11/01 01:46:06;;;;;;;22.65;12.15;;;;;;;10.86;100.00;98419.31;2632229;28;20123;-89
2022/11/01 01:47:30;;;;;;;27.92;12.98;;;;;;;10.70;100.00;98415.44;2631389;28;20094;-89
2022/11/01 01:48:52;;;;;;;25.92;13.75;;;;;;;10.62;100.00;98420.03;2632095;28;20047;-89
2022/11/01 01:50:23;;;;;;;31.42;13.32;;;;;;;10.40;100.00;98417.97;2631889;28;20542;-90
2022/11/01 01:51:38;;;;;;;29.15;12.95;;;;;;;10.38;100.00;98418.00;2631783;28;20418;-89
2022/11/01 01:53:14;;;;;;;30.80;13.10;;;;;;;10.44;100.00;98430.09;2632011;28;20068;-89
2022/11/01 01:54:31;;;;;;;31.02;12.35;;;;;;;10.40;100.00;98428.44;2630438;28;20032;-90
2022/11/01 01:55:52;;;;;;;28.65;11.63;;;;;;;10.47;100.00;98429.16;2630807;28;20051;-90
2022/11/01 01:57:08;;;;;;;26.98;12.85;;;;;;;10.48;100.00;98430.88;2631295;28;20052;-89
2022/11/01 01:58:29;;;;;;;28.58;12.55;;;;;;;10.58;100.00;98421.88;2632120;28;20439;-90
2022/11/01 01:59:45;;;;;;;22.50;12.80;;;;;;;10.59;100.00;98421.81;2632614;28;20094;-89
2022/11/01 02:01:18;;;;;;;40.30;13.35;;;;;;;10.82;100.00;98417.69;2631877;28;20529;-89
2022/11/01 02:02:50;;;;;;;45.95;13.85;;;;;;;10.79;100.00;98414.28;2629030;28;20505;-90
2022/11/01 02:04:11;;;;;;;70.45;14.20;;;;;;;10.63;100.00;98412.13;2631119;28;20052;-90
2022/11/01 02:05:36;;;;;;;89.82;14.90;;;;;;;10.27;100.00;98420.94;2630255;28;20048;-90
2022/11/01 02:06:51;;;;;;;87.90;15.15;;;;;;;10.43;100.00;98417.91;2630228;28;20055;-90
2022/11/01 02:08:07;;;;;;;47.17;14.13;;;;;;;10.43;100.00;98420.53;2630682;28;20051;-90
2022/11/01 02:09:24;;;;;;;52.22;13.30;;;;;;;10.52;100.00;98417.66;2630420;28;20205;-91
2022/11/01 02:10:40;;;;;;;33.95;13.93;;;;;;;10.26;100.00;98413.97;2631652;28;20051;-91
2022/11/01 02:11:56;;;;;;;35.30;12.95;;;;;;;10.32;100.00;98410.34;2632356;28;20044;-88
2022/11/01 02:13:13;;;;;;;42.25;14.45;;;;;;;10.29;100.00;98415.66;2631390;28;20044;-91
2022/11/01 02:14:29;;;;;;;32.45;13.63;;;;;;;10.22;100.00;98408.88;2631756;28;20048;-90
2022/11/01 02:16:02;;;;;;;67.43;14.55;;;;;;;10.30;100.00;98415.59;2631266;28;20998;-90
2022/11/01 02:17:45;;;;;;;42.90;13.52;;;;;;;10.20;100.00;98415.91;2628262;28;20486;-88
2022/11/01 02:19:34;;;;;;;120.03;17.02;;;;;;;10.42;100.00;98410.97;2632505;28;20040;-88
2022/11/01 02:21:42;;;;;;;94.25;14.15;;;;;;;10.10;100.00;98425.75;2631178;28;20052;-89
2022/11/01 02:23:10;;;;;;;60.70;14.38;;;;;;;10.00;100.00;98444.31;2588462;28;20062;-88
2022/11/01 02:24:41;;;;;;;85.85;14.35;;;;;;;9.68;100.00;98459.03;2631139;28;20052;-90
2022/11/01 02:26:39;;;;;;;56.13;14.07;;;;;;;9.64;100.00;98462.63;2631273;28;20056;-89
2022/11/01 02:28:15;;;;;;;42.78;12.40;;;;;;;9.65;100.00;98466.97;2584320;28;20049;-91
2022/11/01 02:30:10;;;;;;;67.20;13.85;;;;;;;9.89;100.00;98460.28;2579863;28;20110;-90
2022/11/01 02:31:32;;;;;;;46.75;12.90;;;;;;;9.79;100.00;98461.38;2578207;28;20054;-87
2022/11/01 02:33:02;;;;;;;31.02;10.55;;;;;;;9.77;100.00;98457.09;2577877;28;20043;-88
2022/11/01 02:34:43;;;;;;;36.78;13.30;;;;;;;10.07;100.00;98450.25;2633849;28;20071;-89
2022/11/01 02:36:06;;;;;;;53.25;13.25;;;;;;;10.02;100.00;98439.03;2640522;28;20413;-88
2022/11/01 02:37:35;;;;;;;36.75;12.98;;;;;;;10.08;100.00;98448.50;2639895;28;20044;-89
2022/11/01 02:39:00;;;;;;;36.70;12.88;;;;;;;10.02;100.00;98446.88;2626341;28;20098;-88
2022/11/01 02:40:24;;;;;;;42.28;12.60;;;;;;;9.85;100.00;98442.09;2638500;28;20509;-91
2022/11/01 02:42:34;;;;;;;48.25;13.98;;;;;;;9.82;100.00;98437.78;2642343;28;20132;-90
2022/11/01 02:44:02;;;;;;;30.63;11.25;;;;;;;10.17;100.00;98441.25;2577924;28;20057;-88
2022/11/01 02:45:27;;;;;;;36.92;12.45;;;;;;;10.12;100.00;98430.03;2578400;28;20137;-91
2022/11/01 02:47:00;;;;;;;29.25;12.63;;;;;;;10.28;100.00;98421.81;2629393;28;20677;-88
2022/11/01 02:48:21;;;;;;;33.80;12.55;;;;;;;10.03;100.00;98432.91;2631725;28;20660;-90
2022/11/01 02:49:40;;;;;;;45.25;12.70;;;;;;;9.78;100.00;98445.72;2639416;28;20531;-87
2022/11/01 02:50:57;;;;;;;29.67;12.15;;;;;;;9.94;100.00;98444.47;2642454;28;20047;-92
2022/11/01 02:52:23;;;;;;;39.05;11.60;;;;;;;9.98;100.00;98440.88;2639116;28;20503;-88
2022/11/01 02:53:39;;;;;;;24.83;12.02;;;;;;;10.19;100.00;98438.59;2631748;28;20512;-88
2022/11/01 02:54:58;;;;;;;25.05;12.98;;;;;;;10.20;100.00;98427.25;2631521;28;20098;-88
2022/11/01 02:56:16;;;;;;;28.52;13.23;;;;;;;10.38;100.00;98427.63;2631624;28;20054;-88
2022/11/01 02:57:39;;;;;;;32.17;12.95;;;;;;;10.35;100.00;98423.34;2631086;28;20036;-89
2022/11/01 02:58:55;;;;;;;39.75;11.93;;;;;;;10.42;100.00;98422.31;2631113;28;20052;-88
2022/11/01 03:00:30;;;;;;;43.67;12.70;;;;;;;10.49;100.00;98417.78;2638209;28;20079;-87
2022/11/01 03:01:54;;;;;;;40.95;13.00;;;;;;;10.37;100.00;98420.69;2642123;28;20039;-87
2022/11/01 03:03:21;;;;;;;36.30;11.68;;;;;;;10.24;100.00;98423.63;2641955;28;20073;-90
2022/11/01 03:04:37;;;;;;;30.80;11.75;;;;;;;10.08;100.00;98422.34;2642245;28;20120;-88
2022/11/01 03:05:58;;;;;;;33.28;11.75;;;;;;;10.17;100.00;98428.19;2642143;28;20056;-86
2022/11/01 03:07:15;;;;;;;33.75;11.55;;;;;;;10.04;100.00;98438.09;2641966;28;20043;-88
2022/11/01 03:08:40;;;;;;;31.90;11.57;;;;;;;10.09;100.00;98439.75;2641764;28;20519;-89
2022/11/01 03:09:55;;;;;;;29.17;11.48;;;;;;;10.12;100.00;98432.66;2630453;28;20040;-89
2022/11/01 03:11:16;;;;;;;27.67;11.27;;;;;;;10.15;100.00;98440.44;2634725;28;20050;-88
2022/11/01 03:12:34;;;;;;;48.13;12.65;;;;;;;10.18;100.00;98437.75;2642135;28;20067;-88
2022/11/01 03:14:14;;;;;;;36.13;12.20;;;;;;;10.20;100.00;98442.06;2642028;28;20194;-87
2022/11/01 03:15:38;;;;;;;38.38;12.43;;;;;;;10.10;100.00;98441.47;2640148;28;20040;-88
2022/11/01 03:17:19;;;;;;;46.08;12.20;;;;;;;10.20;100.00;98432.47;2631797;28;20055;-87
2022/11/01 03:18:38;;;;;;;33.97;12.25;;;;;;;10.13;100.00;98433.53;2631451;28;20485;-87
2022/11/01 03:19:59;;;;;;;38.22;13.48;;;;;;;10.01;100.00;98443.41;2631621;28;20048;-88
2022/11/01 03:21:22;;;;;;;40.42;12.30;;;;;;;9.83;100.00;98451.72;2631075;28;20471;-88
2022/11/01 03:22:43;;;;;;;50.00;12.27;;;;;;;9.90;100.00;98450.66;2632670;28;20715;-88
2022/11/01 03:24:35;;;;;;;37.50;13.30;;;;;;;10.14;100.00;98450.94;2630373;28;20067;-86
2022/11/01 03:25:56;;;;;;;44.50;14.00;;;;;;;10.06;100.00;98453.75;2631425;28;20546;-86
2022/11/01 03:27:24;;;;;;;37.97;12.40;;;;;;;10.14;100.00;98450.94;2631481;28;20050;-87
2022/11/01 03:28:44;;;;;;;44.65;12.40;;;;;;;10.21;100.00;98454.25;2631483;28;20501;-87
2022/11/01 03:30:05;;;;;;;48.25;14.20;;;;;;;10.35;100.00;98444.28;2631683;28;20043;-86
2022/11/01 03:31:27;;;;;;;41.13;12.88;;;;;;;10.24;100.00;98441.09;2620311;28;20048;-89
2022/11/01 03:32:51;;;;;;;26.75;12.85;;;;;;;10.29;100.00;98442.69;2620427;28;20549;-88
2022/11/01 03:34:17;;;;;;;32.55;12.95;;;;;;;10.30;100.00;98439.16;2620645;28;20057;-88
2022/11/01 03:35:38;;;;;;;46.47;12.48;;;;;;;10.14;100.00;98436.13;2620334;28;20051;-88
2022/11/01 03:37:00;;;;;;;40.72;13.15;;;;;;;10.26;100.00;98436.66;2621063;28;20080;-88
2022/11/01 03:38:25;;;;;;;35.10;12.50;;;;;;;10.31;100.00;98440.88;2621092;28;20047;-88
2022/11/01 03:39:45;;;;;;;41.10;12.13;;;;;;;10.16;100.00;98436.94;2627694;28;20083;-88
2022/11/01 03:41:05;;;;;;;42.75;12.68;;;;;;;10.26;100.00;98442.75;2631435;28;20059;-88
2022/11/01 03:42:22;;;;;;;33.00;12.48;;;;;;;10.49;100.00;98436.09;2631228;28;20478;-88
2022/11/01 03:43:40;;;;;;;48.55;13.98;;;;;;;10.64;100.00;98439.19;2631125;28;20087;-88
2022/11/01 03:45:01;;;;;;;40.17;11.98;;;;;;;10.66;100.00;98432.13;2631160;28;20054;-87
2022/11/01 03:46:17;;;;;;;32.83;11.75;;;;;;;10.56;100.00;98424.53;2631446;28;20134;-88
2022/11/01 03:47:33;;;;;;;36.55;12.15;;;;;;;10.51;100.00;98431.66;2631318;28;20078;-88
2022/11/01 03:48:48;;;;;;;33.22;12.05;;;;;;;10.22;100.00;98430.69;2631327;28;20071;-88
2022/11/01 03:50:22;;;;;;;34.88;12.20;;;;;;;10.18;100.00;98439.47;2631221;28;20056;-89
2022/11/01 03:51:38;;;;;;;32.25;12.48;;;;;;;10.10;100.00;98452.75;2631107;28;20043;-87
2022/11/01 03:52:54;;;;;;;48.20;13.85;;;;;;;10.25;100.00;98445.41;2631113;28;20051;-87
2022/11/01 03:54:09;;;;;;;39.88;12.57;;;;;;;10.40;100.00;98445.00;2631411;28;20040;-87
2022/11/01 03:55:25;;;;;;;37.78;12.15;;;;;;;10.43;100.00;98442.34;2631091;28;20052;-88
2022/11/01 03:56:41;;;;;;;38.15;12.15;;;;;;;10.60;100.00;98441.03;2631303;28;20551;-87
2022/11/01 03:57:58;;;;;;;29.17;11.30;;;;;;;10.52;100.00;98446.47;2631278;28;20835;-87
2022/11/01 03:59:13;;;;;;;31.52;12.25;;;;;;;10.53;100.00;98444.69;2630572;28;20553;-90
2022/11/01 04:00:34;;;;;;;35.97;13.27;;;;;;;10.42;100.00;98445.88;2631004;28;20064;-89
2022/11/01 04:01:49;;;;;;;30.08;11.60;;;;;;;10.25;100.00;98448.03;2635502;28;20454;-89
2022/11/01 04:03:05;;;;;;;46.45;12.57;;;;;;;10.07;100.00;98455.47;2637470;28;20067;-88
2022/11/01 04:04:21;;;;;;;48.80;12.57;;;;;;;9.98;100.00;98455.69;2631357;28;20134;-88
2022/11/01 04:05:39;;;;;;;40.97;12.77;;;;;;;10.10;100.00;98457.16;2629997;28;20899;-89
2022/11/01 04:06:54;;;;;;;43.70;12.80;;;;;;;10.24;100.00;98459.41;2635894;28;20105;-88
2022/11/01 04:08:10;;;;;;;32.03;12.20;;;;;;;10.22;100.00;98451.59;2635442;28;20048;-87
2022/11/01 04:09:26;;;;;;;37.90;11.88;;;;;;;10.06;100.00;98455.50;2630967;28;20052;-87
2022/11/01 04:10:43;;;;;;;40.33;12.30;;;;;;;10.27;100.00;98464.56;2638503;28;20048;-88
2022/11/01 04:11:59;;;;;;;40.88;12.25;;;;;;;10.33;100.00;98459.16;2641246;28;20078;-88
2022/11/01 04:13:14;;;;;;;28.10;12.95;;;;;;;10.32;100.00;98453.06;2632275;28;20536;-88
2022/11/01 04:20:47;;;;;;;27.67;11.50;;;;;;;10.51;100.00;98452.59;2630472;28;20071;-89
2022/11/01 04:22:03;;;;;;;36.80;11.80;;;;;;;10.37;100.00;98452.09;2633991;28;20051;-89
2022/11/01 04:23:19;;;;;;;30.27;11.75;;;;;;;10.34;100.00;98454.78;2630860;28;20059;-89
2022/11/01 04:24:34;;;;;;;33.88;12.15;;;;;;;10.26;100.00;98462.81;2633149;28;20047;-89
2022/11/01 04:25:50;;;;;;;40.42;11.73;;;;;;;10.45;100.00;98450.13;2639924;28;20391;-88
2022/11/01 04:27:06;;;;;;;34.45;12.75;;;;;;;10.49;100.00;98459.66;2630168;28;20076;-88
2022/11/01 04:28:22;;;;;;;33.28;12.80;;;;;;;10.56;100.00;98455.09;2636188;28;20684;-89
2022/11/01 04:29:37;;;;;;;36.67;12.98;;;;;;;10.57;100.00;98462.06;2634311;28;20060;-88
2022/11/01 04:30:53;;;;;;;38.15;12.45;;;;;;;10.48;100.00;98455.31;2639691;28;20489;-88
2022/11/01 04:32:09;;;;;;;25.88;11.75;;;;;;;10.65;100.00;98460.06;2641135;28;20765;-88
2022/11/01 04:33:24;;;;;;;30.00;11.13;;;;;;;10.64;100.00;98457.50;2640805;28;20052;-87
2022/11/01 04:34:43;;;;;;;32.05;11.38;;;;;;;10.57;100.00;98455.03;2641497;28;20070;-89
2022/11/01 04:36:04;;;;;;;32.10;12.43;;;;;;;10.43;100.00;98459.81;2638456;28;20418;-88
2022/11/01 04:37:19;;;;;;;24.50;11.95;;;;;;;10.37;100.00;98450.31;2635598;28;20048;-90
2022/11/01 04:38:35;;;;;;;30.60;12.45;;;;;;;10.55;100.00;98454.22;2639369;28;20050;-90
2022/11/01 04:39:50;;;;;;;27.95;12.75;;;;;;;10.66;100.00;98451.31;2630039;28;20044;-88
2022/11/01 04:41:06;;;;;;;30.85;11.48;;;;;;;10.57;100.00;98451.59;2634317;28;20044;-88
2022/11/01 04:42:22;;;;;;;27.10;11.68;;;;;;;10.43;100.00;98447.59;2638359;28;20047;-88
2022/11/01 04:43:37;;;;;;;29.63;11.30;;;;;;;10.25;100.00;98456.75;2629940;28;20048;-87
2022/11/01 04:44:52;;;;;;;29.13;11.43;;;;;;;10.10;100.00;98467.63;2629706;28;20056;-87
2022/11/01 04:46:08;;;;;;;29.75;11.70;;;;;;;10.19;100.00;98472.59;2629436;28;20252;-87
2022/11/01 04:47:24;;;;;;;32.05;12.43;;;;;;;10.19;100.00;98477.81;2629146;28;20068;-88
2022/11/01 04:48:40;;;;;;;24.83;11.23;;;;;;;10.25;100.00;98487.28;2636671;28;20525;-87
2022/11/01 04:49:56;;;;;;;27.33;11.48;;;;;;;10.28;100.00;98490.69;2638647;28;20139;-87
2022/11/01 04:51:12;;;;;;;26.35;11.23;;;;;;;10.33;100.00;98493.19;2638350;28;20052;-88
2022/11/01 04:52:28;;;;;;;43.50;11.55;;;;;;;10.37;100.00;98486.13;2631578;28;20051;-88
2022/11/01 04:53:43;;;;;;;26.63;11.48;;;;;;;10.46;100.00;98488.50;2636025;28;20047;-89
2022/11/01 04:54:59;;;;;;;25.83;11.70;;;;;;;10.57;100.00;98478.59;2630166;28;20048;-89
2022/11/01 04:56:14;;;;;;;28.35;12.45;;;;;;;10.21;100.00;98490.88;2629592;28;20032;-88
2022/11/01 04:57:30;;;;;;;31.33;11.93;;;;;;;10.36;100.00;98481.78;2629823;28;20048;-87
2022/11/01 04:58:45;;;;;;;24.73;11.77;;;;;;;10.41;100.00;98477.31;2638160;28;20056;-90
2022/11/01 05:00:01;;;;;;;32.80;12.07;;;;;;;10.34;100.00;98475.69;2634999;28;20256;-89
2022/11/01 05:01:17;;;;;;;52.85;12.82;;;;;;;10.28;100.00;98472.38;2629691;28;20044;-88
2022/11/01 05:02:32;;;;;;;66.93;15.27;;;;;;;10.54;100.00;98464.72;2626787;28;20055;-89
2022/11/01 05:03:48;;;;;;;24.35;11.98;;;;;;;10.66;100.00;98453.91;2630698;28;20043;-90
2022/11/01 05:05:05;;;;;;;33.58;11.80;;;;;;;10.48;100.00;98464.91;2630888;28;20052;-90
2022/11/01 05:06:21;;;;;;;31.15;11.45;;;;;;;10.55;100.00;98472.56;2630617;28;20039;-89
2022/11/01 05:07:37;;;;;;;24.85;10.48;;;;;;;10.45;100.00;98468.47;2632538;28;20056;-90
2022/11/01 05:08:53;;;;;;;31.98;11.45;;;;;;;10.25;100.00;98482.91;2630105;28;20401;-87
2022/11/01 05:10:10;;;;;;;25.90;11.68;;;;;;;10.25;100.00;98487.28;2633153;28;20085;-88
2022/11/01 05:11:25;;;;;;;24.75;10.85;;;;;;;10.29;100.00;98491.56;2640693;28;20142;-89
2022/11/01 05:12:41;;;;;;;21.70;11.00;;;;;;;10.30;100.00;98486.25;2641059;28;20042;-87
2022/11/01 05:13:56;;;;;;;24.92;10.70;;;;;;;10.36;100.00;98490.47;2641190;28;20542;-91
2022/11/01 05:15:12;;;;;;;32.25;12.85;;;;;;;10.35;100.00;98477.44;2631186;28;20044;-90
2022/11/01 05:16:27;;;;;;;33.03;11.15;;;;;;;10.43;100.00;98472.88;2639041;28;20488;-91
2022/11/01 05:17:43;;;;;;;41.58;11.32;;;;;;;10.40;100.00;98480.78;2627793;28;20594;-90
2022/11/01 05:18:59;;;;;;;28.95;11.38;;;;;;;10.28;100.00;98485.44;2634166;28;20055;-90
2022/11/01 05:20:15;;;;;;;34.00;10.68;;;;;;;10.30;100.00;98496.72;2640724;28;20051;-88
2022/11/01 05:21:30;;;;;;;37.38;10.70;;;;;;;10.32;100.00;98489.69;2638220;28;20109;-87
2022/11/01 05:22:47;;;;;;;27.90;11.48;;;;;;;10.35;100.00;98485.31;2631244;28;20063;-89
2022/11/01 05:24:03;;;;;;;49.22;11.90;;;;;;;10.35;100.00;98483.53;2629884;28;20040;-90
2022/11/01 05:25:18;;;;;;;57.17;11.85;;;;;;;10.31;100.00;98485.34;2630477;28;20047;-89
2022/11/01 05:26:33;;;;;;;40.70;10.85;;;;;;;10.19;100.00;98493.53;2630817;28;20471;-89
2022/11/01 05:27:49;;;;;;;48.85;12.05;;;;;;;9.90;100.00;98484.66;2630327;28;20078;-88
2022/11/01 05:29:05;;;;;;;58.25;11.32;;;;;;;10.08;100.00;98482.50;2630509;28;20048;-90
2022/11/01 05:30:20;;;;;;;39.03;11.18;;;;;;;10.09;100.00;98486.84;2630540;28;20902;-88
2022/11/01 05:31:36;;;;;;;33.55;10.77;;;;;;;10.10;100.00;98492.00;2630563;28;20048;-88
2022/11/01 05:33:00;;;;;;;24.58;10.90;;;;;;;9.99;100.00;98499.28;2631911;28;20410;-90
2022/11/01 05:34:15;;;;;;;23.42;10.57;;;;;;;9.97;100.00;98491.47;2631849;28;20494;-87
2022/11/01 05:35:32;;;;;;;31.23;11.52;;;;;;;10.02;100.00;98492.19;2632122;28;20043;-88
2022/11/01 05:36:48;;;;;;;24.77;9.77;;;;;;;9.80;100.00;98491.88;2631862;28;20048;-87
2022/11/01 05:38:04;;;;;;;19.63;11.30;;;;;;;9.92;100.00;98493.34;2632406;28;20055;-87
2022/11/01 05:39:20;;;;;;;21.38;10.18;;;;;;;10.09;100.00;98495.53;2632427;28;20832;-88
2022/11/01 05:40:35;;;;;;;19.05;9.73;;;;;;;9.92;100.00;98489.84;2632092;28;20075;-89
2022/11/01 05:41:51;;;;;;;20.52;10.18;;;;;;;10.13;100.00;98491.06;2632056;28;20097;-89
2022/11/01 05:43:07;;;;;;;21.08;10.35;;;;;;;9.98;100.00;98494.91;2631945;28;20086;-90
2022/11/01 05:44:23;;;;;;;21.17;10.38;;;;;;;9.91;100.00;98488.97;2631824;28;20040;-90
2022/11/01 05:45:39;;;;;;;29.52;11.60;;;;;;;10.11;100.00;98501.56;2631808;28;20101;-89
2022/11/01 05:46:54;;;;;;;27.65;10.77;;;;;;;10.21;100.00;98494.38;2632276;28;20387;-89
2022/11/01 05:48:10;;;;;;;27.13;11.23;;;;;;;10.12;100.00;98498.06;2632082;28;20044;-90
2022/11/01 05:49:26;;;;;;;24.10;11.07;;;;;;;10.00;100.00;98499.22;2631753;28;20046;-89
2022/11/01 05:50:44;;;;;;;23.50;10.93;;;;;;;9.92;100.00;98501.19;2632132;28;20135;-87
2022/11/01 05:51:59;;;;;;;30.90;11.70;;;;;;;10.09;100.00;98497.28;2632190;28;20536;-89
2022/11/01 05:53:15;;;;;;;27.63;11.60;;;;;;;10.04;100.00;98500.88;2631574;28;20056;-90
2022/11/01 05:54:30;;;;;;;27.63;11.60;;;;;;;10.16;100.00;98502.34;2634246;28;20056;-90
2022/11/01 05:55:46;;;;;;;30.98;11.80;;;;;;;10.07;100.00;98494.72;2632011;28;20075;-89
2022/11/01 05:57:04;;;;;;;31.10;11.60;;;;;;;9.91;100.00;98499.44;2631764;28;20043;-90
2022/11/01 05:58:19;;;;;;;30.83;11.80;;;;;;;10.08;100.00;98490.34;2631893;28;20060;-89
2022/11/01 05:59:35;;;;;;;23.88;10.60;;;;;;;10.10;100.00;98497.25;2632418;28;20044;-90
2022/11/01 06:00:56;;;;;;;31.15;10.93;;;;;;;10.23;100.00;98489.94;2632560;28;20127;-90
2022/11/01 06:02:12;;;;;;;31.70;11.75;;;;;;;10.31;100.00;98498.44;2632123;28;20302;-89
2022/11/01 06:03:28;;;;;;;25.88;10.65;;;;;;;10.06;100.00;98497.34;2632100;28;20410;-89
2022/11/01 06:04:43;;;;;;;26.73;11.13;;;;;;;9.95;100.00;98506.34;2632261;28;20044;-89
2022/11/01 06:05:59;;;;;;;29.83;10.95;;;;;;;9.92;100.00;98514.28;2631975;28;20113;-88